sensor_id;sensor_type;location;lat;lon;timestamp;pressure;altitude;pressure_sealevel;temperature;humidity
16777;BME280;8505;49.456;8.164;2023-12-20T00:01:19;99799.47;;;5.14;100.00
16777;BME280;8505;49.456;8.164;2023-12-20T00:03:46;99797.81;;;5.13;100.00
16777;BME280;8505;49.456;8.164;2023-12-20T00:06:14;99798.34;;;5.07;100.00
16777;BME280;8505;49.456;8.164;2023-12-20T00:08:44;99800.44;;;5.13;100.00
16777;BME280;8505;49.456;8.164;2023-12-20T00:11:13;99804.84;;;5.12;100.00
16777;BME280;8505;49.456;8.164;2023-12-20T00:13:41;99810.25;;;5.11;100.00
16777;BME280;8505;49.456;8.164;2023-12-20T00:16:09;99812.47;;;5.06;100.00
16777;BME280;8505;49.456;8.164;2023-12-20T00:18:37;99815.78;;;5.08;100.00
16777;BME280;8505;49.456;8.164;2023-12-20T00:21:05;99816.31;;;5.02;100.00
16777;BME280;8505;49.456;8.164;2023-12-20T00:23:34;99818.81;;;5.03;100.00
16777;BME280;8505;49.456;8.164;2023-12-20T00:26:02;99817.13;;;5.02;100.00
16777;BME280;8505;49.456;8.164;2023-12-20T00:28:31;99826.41;;;5.06;100.00
16777;BME280;8505;49.456;8.164;2023-12-20T00:30:59;99825.59;;;5.06;100.00
16777;BME280;8505;49.456;8.164;2023-12-20T00:33:27;99812.19;;;4.99;100.00
16777;BME280;8505;49.456;8.164;2023-12-20T00:35:54;99813.56;;;5.03;100.00
16777;BME280;8505;49.456;8.164;2023-12-20T00:38:22;99821.31;;;5.05;100.00
16777;BME280;8505;49.456;8.164;2023-12-20T00:40:50;99825.13;;;5.01;100.00
16777;BME280;8505;49.456;8.164;2023-12-20T00:43:17;99829.72;;;5.08;100.00
16777;BME280;8505;49.456;8.164;2023-12-20T00:45:46;99818.94;;;5.02;100.00
16777;BME280;8505;49.456;8.164;2023-12-20T00:48:15;99821.84;;;4.99;100.00
16777;BME280;8505;49.456;8.164;2023-12-20T00:50:43;99809.94;;;4.95;100.00
16777;BME280;8505;49.456;8.164;2023-12-20T00:53:11;99805.22;;;4.88;100.00
16777;BME280;8505;49.456;8.164;2023-12-20T00:55:38;99809.09;;;4.94;100.00
16777;BME280;8505;49.456;8.164;2023-12-20T00:58:06;99807.72;;;4.90;100.00
16777;BME280;8505;49.456;8.164;2023-12-20T01:00:37;99806.88;;;4.89;100.00
16777;BME280;8505;49.456;8.164;2023-12-20T01:03:10;99806.88;;;4.89;100.00
16777;BME280;8505;49.456;8.164;2023-12-20T01:05:38;99811.28;;;4.89;100.00
16777;BME280;8505;49.456;8.164;2023-12-20T01:08:06;99809.50;;;4.89;100.00
16777;BME280;8505;49.456;8.164;2023-12-20T01:10:34;99813.66;;;4.92;100.00
16777;BME280;8505;49.456;8.164;2023-12-20T01:13:01;99801.63;;;4.89;100.00
16777;BME280;8505;49.456;8.164;2023-12-20T01:15:29;99798.91;;;5.01;100.00
16777;BME280;8505;49.456;8.164;2023-12-20T01:17:57;99805.22;;;4.88;100.00
16777;BME280;8505;49.456;8.164;2023-12-20T01:20:36;99796.66;;;4.86;100.00
16777;BME280;8505;49.456;8.164;2023-12-20T01:23:04;99787.31;;;4.94;100.00
16777;BME280;8505;49.456;8.164;2023-12-20T01:25:31;99793.88;;;4.88;100.00
16777;BME280;8505;49.456;8.164;2023-12-20T01:27:59;99790.19;;;4.91;100.00
16777;BME280;8505;49.456;8.164;2023-12-20T01:30:27;99794.47;;;4.92;100.00
16777;BME280;8505;49.456;8.164;2023-12-20T01:32:55;99788.38;;;4.91;100.00
16777;BME280;8505;49.456;8.164;2023-12-20T01:35:22;99798.47;;;4.96;100.00
16777;BME280;8505;49.456;8.164;2023-12-20T01:37:51;99790.34;;;4.99;100.00
16777;BME280;8505;49.456;8.164;2023-12-20T01:40:23;99792.69;;;4.92;100.00
16777;BME280;8505;49.456;8.164;2023-12-20T01:42:58;99787.72;;;4.99;100.00
16777;BME280;8505;49.456;8.164;2023-12-20T01:45:25;99786.06;;;4.98;100.00
16777;BME280;8505;49.456;8.164;2023-12-20T01:47:53;99789.78;;;4.95;100.00
16777;BME280;8505;49.456;8.164;2023-12-20T01:50:22;99783.03;;;5.02;100.00
16777;BME280;8505;49.456;8.164;2023-12-20T01:52:52;99777.59;;;4.94;100.00
16777;BME280;8505;49.456;8.164;2023-12-20T01:55:25;99787.56;;;5.00;100.00
16777;BME280;8505;49.456;8.164;2023-12-20T01:57:53;99803.59;;;4.97;100.00
16777;BME280;8505;49.456;8.164;2023-12-20T02:00:21;99808.28;;;4.94;100.00
16777;BME280;8505;49.456;8.164;2023-12-20T02:02:53;99808.84;;;5.07;100.00
16777;BME280;8505;49.456;8.164;2023-12-20T02:05:21;99824.19;;;5.02;100.00
16777;BME280;8505;49.456;8.164;2023-12-20T02:07:49;99816.31;;;5.02;100.00
16777;BME280;8505;49.456;8.164;2023-12-20T02:10:18;99803.31;;;4.91;100.00
16777;BME280;8505;49.456;8.164;2023-12-20T02:12:46;99798.66;;;5.04;100.00
16777;BME280;8505;49.456;8.164;2023-12-20T02:15:14;99808.31;;;5.03;100.00
16777;BME280;8505;49.456;8.164;2023-12-20T02:17:42;99797.22;;;4.90;100.00
16777;BME280;8505;49.456;8.164;2023-12-20T02:20:11;99799.00;;;4.89;100.00
16777;BME280;8505;49.456;8.164;2023-12-20T02:22:40;99805.81;;;4.92;100.00
16777;BME280;8505;49.456;8.164;2023-12-20T02:25:07;99811.03;;;4.92;100.00
16777;BME280;8505;49.456;8.164;2023-12-20T02:27:35;99808.56;;;4.91;100.00
16777;BME280;8505;49.456;8.164;2023-12-20T02:30:05;99817.13;;;4.93;100.00
16777;BME280;8505;49.456;8.164;2023-12-20T02:32:32;99796.38;;;4.89;100.00
16777;BME280;8505;49.456;8.164;2023-12-20T02:35:00;99784.16;;;5.00;100.00
16777;BME280;8505;49.456;8.164;2023-12-20T02:37:27;99779.28;;;4.95;100.00
16777;BME280;8505;49.456;8.164;2023-12-20T02:39:56;99795.00;;;4.85;100.00
16777;BME280;8505;49.456;8.164;2023-12-20T02:42:24;99786.59;;;4.92;100.00
16777;BME280;8505;49.456;8.164;2023-12-20T02:44:52;99782.06;;;4.94;100.00
16777;BME280;8505;49.456;8.164;2023-12-20T02:47:19;99786.31;;;4.85;100.00
16777;BME280;8505;49.456;8.164;2023-12-20T02:49:47;99794.19;;;4.95;100.00
16777;BME280;8505;49.456;8.164;2023-12-20T02:52:15;99794.47;;;4.92;100.00
16777;BME280;8505;49.456;8.164;2023-12-20T02:54:43;99802.75;;;4.87;100.00
16777;BME280;8505;49.456;8.164;2023-12-20T02:57:12;99800.78;;;4.79;100.00
16777;BME280;8505;49.456;8.164;2023-12-20T02:59:40;99800.69;;;4.91;100.00
16777;BME280;8505;49.456;8.164;2023-12-20T03:02:08;99801.63;;;4.89;100.00
16777;BME280;8505;49.456;8.164;2023-12-20T03:04:35;99806.88;;;4.89;100.00
16777;BME280;8505;49.456;8.164;2023-12-20T03:07:03;99798.34;;;4.87;100.00
16777;BME280;8505;49.456;8.164;2023-12-20T03:09:31;99795.00;;;4.85;100.00
16777;BME280;8505;49.456;8.164;2023-12-20T03:12:20;99815.16;;;4.85;100.00
16777;BME280;8505;49.456;8.164;2023-12-20T03:14:48;99827.84;;;4.80;100.00
16777;BME280;8505;49.456;8.164;2023-12-20T03:17:15;99830.19;;;4.83;100.00
16777;BME280;8505;49.456;8.164;2023-12-20T03:19:43;99835.31;;;4.84;100.00
16777;BME280;8505;49.456;8.164;2023-12-20T03:22:11;99833.13;;;4.89;100.00
16777;BME280;8505;49.456;8.164;2023-12-20T03:24:39;99824.84;;;4.94;100.00
16777;BME280;8505;49.456;8.164;2023-12-20T03:27:07;99826.38;;;4.97;100.00
16777;BME280;8505;49.456;8.164;2023-12-20T03:29:36;99837.16;;;4.94;100.00
16777;BME280;8505;49.456;8.164;2023-12-20T03:32:04;99828.44;;;4.93;100.00
16777;BME280;8505;49.456;8.164;2023-12-20T03:34:32;99829.28;;;4.94;100.00
16777;BME280;8505;49.456;8.164;2023-12-20T03:36:59;99831.19;;;4.92;100.00
16777;BME280;8505;49.456;8.164;2023-12-20T03:39:27;99822.22;;;4.94;100.00
16777;BME280;8505;49.456;8.164;2023-12-20T03:41:55;99830.78;;;4.96;100.00
16777;BME280;8505;49.456;8.164;2023-12-20T03:44:23;99818.94;;;5.02;100.00
16777;BME280;8505;49.456;8.164;2023-12-20T03:46:52;99825.41;;;4.98;100.00
16777;BME280;8505;49.456;8.164;2023-12-20T03:49:19;99825.84;;;5.03;100.00
16777;BME280;8505;49.456;8.164;2023-12-20T03:51:47;99824.06;;;5.13;100.00
16777;BME280;8505;49.456;8.164;2023-12-20T03:54:15;99837.47;;;5.10;100.00
16777;BME280;8505;49.456;8.164;2023-12-20T03:56:43;99828.59;;;5.01;100.00
16777;BME280;8505;49.456;8.164;2023-12-20T03:59:10;99842.00;;;5.08;100.00
16777;BME280;8505;49.456;8.164;2023-12-20T04:01:38;99848.94;;;5.09;100.00
16777;BME280;8505;49.456;8.164;2023-12-20T04:04:07;99847.25;;;5.08;100.00
16777;BME280;8505;49.456;8.164;2023-12-20T04:06:34;99847.56;;;5.14;100.00
16777;BME280;8505;49.456;8.164;2023-12-20T04:09:02;99848.94;;;5.09;100.00
16777;BME280;8505;49.456;8.164;2023-12-20T04:11:30;99860.56;;;5.16;100.00
16777;BME280;8505;49.456;8.164;2023-12-20T04:13:58;99839.84;;;5.22;100.00
16777;BME280;8505;49.456;8.164;2023-12-20T04:16:25;99840.69;;;5.23;100.00
16777;BME280;8505;49.456;8.164;2023-12-20T04:18:53;99854.34;;;5.17;100.00
16777;BME280;8505;49.456;8.164;2023-12-20T04:21:22;99851.72;;;5.17;100.00
16777;BME280;8505;49.456;8.164;2023-12-20T04:23:50;99848.69;;;5.21;100.00
16777;BME280;8505;49.456;8.164;2023-12-20T04:26:17;99845.50;;;5.18;100.00
16777;BME280;8505;49.456;8.164;2023-12-20T04:28:45;99859.19;;;5.12;100.00
16777;BME280;8505;49.456;8.164;2023-12-20T04:31:13;99855.03;;;5.19;100.00
16777;BME280;8505;49.456;8.164;2023-12-20T04:33:41;99855.19;;;5.27;100.00
16777;BME280;8505;49.456;8.164;2023-12-20T04:36:08;99873.16;;;5.32;100.00
16777;BME280;8505;49.456;8.164;2023-12-20T04:38:38;99876.63;;;5.32;100.00
16777;BME280;8505;49.456;8.164;2023-12-20T04:41:05;99870.16;;;5.36;100.00
16777;BME280;8505;49.456;8.164;2023-12-20T04:43:33;99866.66;;;5.26;100.00
16777;BME280;8505;49.456;8.164;2023-12-20T04:46:00;99869.16;;;5.27;100.00
16777;BME280;8505;49.456;8.164;2023-12-20T04:48:28;99871.53;;;5.31;100.00
16777;BME280;8505;49.456;8.164;2023-12-20T04:50:56;99875.22;;;5.28;100.00
16777;BME280;8505;49.456;8.164;2023-12-20T04:53:24;99871.38;;;5.32;100.00
16777;BME280;8505;49.456;8.164;2023-12-20T04:55:53;99864.31;;;5.23;100.00
16777;BME280;8505;49.456;8.164;2023-12-20T04:58:21;99883.53;;;5.33;100.00
16777;BME280;8505;49.456;8.164;2023-12-20T05:00:49;99874.94;;;5.31;100.00
16777;BME280;8505;49.456;8.164;2023-12-20T05:03:17;99890.16;;;5.37;100.00
16777;BME280;8505;49.456;8.164;2023-12-20T05:05:44;99881.88;;;5.32;100.00
16777;BME280;8505;49.456;8.164;2023-12-20T05:08:12;99884.50;;;5.32;100.00
16777;BME280;8505;49.456;8.164;2023-12-20T05:10:40;99890.06;;;5.48;100.00
16777;BME280;8505;49.456;8.164;2023-12-20T05:13:09;99896.53;;;5.44;100.00
16777;BME280;8505;49.456;8.164;2023-12-20T05:15:37;99907.88;;;5.45;100.00
16777;BME280;8505;49.456;8.164;2023-12-20T05:18:05;99909.53;;;5.46;100.00
16777;BME280;8505;49.456;8.164;2023-12-20T05:20:33;99912.34;;;5.54;100.00
16777;BME280;8505;49.456;8.164;2023-12-20T05:23:01;99900.59;;;5.58;100.00
16777;BME280;8505;49.456;8.164;2023-12-20T05:25:29;99902.91;;;5.51;100.00
16777;BME280;8505;49.456;8.164;2023-12-20T05:27:57;99894.38;;;5.59;100.00
16777;BME280;8505;49.456;8.164;2023-12-20T05:30:26;99911.09;;;5.58;100.00
16777;BME280;8505;49.456;8.164;2023-12-20T05:32:54;99901.13;;;5.42;100.00
16777;BME280;8505;49.456;8.164;2023-12-20T05:35:22;99911.63;;;5.52;100.00
16777;BME280;8505;49.456;8.164;2023-12-20T05:37:50;99916.78;;;5.63;100.00
16777;BME280;8505;49.456;8.164;2023-12-20T05:40:17;99923.53;;;5.56;100.00
16777;BME280;8505;49.456;8.164;2023-12-20T05:42:45;99932.94;;;5.68;100.00
16777;BME280;8505;49.456;8.164;2023-12-20T05:45:15;99950.50;;;5.58;100.00
16777;BME280;8505;49.456;8.164;2023-12-20T05:47:44;99958.25;;;5.69;100.00
16777;BME280;8505;49.456;8.164;2023-12-20T05:50:12;99959.38;;;5.66;100.00
16777;BME280;8505;49.456;8.164;2023-12-20T05:52:39;99960.56;;;5.53;100.00
16777;BME280;8505;49.456;8.164;2023-12-20T05:55:07;99964.03;;;5.53;100.00
16777;BME280;8505;49.456;8.164;2023-12-20T05:57:35;99976.81;;;5.67;100.00
16777;BME280;8505;49.456;8.164;2023-12-20T06:00:03;99979.38;;;5.58;100.00
16777;BME280;8505;49.456;8.164;2023-12-20T06:02:33;99990.38;;;5.73;100.00
16777;BME280;8505;49.456;8.164;2023-12-20T06:05:02;99991.03;;;5.75;100.00
16777;BME280;8505;49.456;8.164;2023-12-20T06:07:31;100010.56;;;5.82;100.00
16777;BME280;8505;49.456;8.164;2023-12-20T06:09:59;99999.94;;;5.83;100.00
16777;BME280;8505;49.456;8.164;2023-12-20T06:12:26;99996.66;;;6.00;100.00
16777;BME280;8505;49.456;8.164;2023-12-20T06:14:55;99992.09;;;5.93;100.00
16777;BME280;8505;49.456;8.164;2023-12-20T06:17:23;99994.78;;;5.82;100.00
16777;BME280;8505;49.456;8.164;2023-12-20T06:19:51;99989.25;;;5.75;100.00
16777;BME280;8505;49.456;8.164;2023-12-20T06:22:20;100001.16;;;5.79;100.00
16777;BME280;8505;49.456;8.164;2023-12-20T06:24:48;100010.50;;;5.62;100.00
16777;BME280;8505;49.456;8.164;2023-12-20T06:27:16;100006.56;;;5.78;100.00
16777;BME280;8505;49.456;8.164;2023-12-20T06:29:43;99997.13;;;5.75;99.96
16777;BME280;8505;49.456;8.164;2023-12-20T06:32:11;100006.44;;;5.79;98.62
16777;BME280;8505;49.456;8.164;2023-12-20T06:34:39;100019.38;;;5.61;98.38
16777;BME280;8505;49.456;8.164;2023-12-20T06:37:07;100009.41;;;5.65;98.27
16777;BME280;8505;49.456;8.164;2023-12-20T06:39:36;100006.38;;;5.69;96.85
16777;BME280;8505;49.456;8.164;2023-12-20T06:42:04;100007.22;;;5.70;96.68
16777;BME280;8505;49.456;8.164;2023-12-20T06:44:31;100010.34;;;5.54;97.14
16777;BME280;8505;49.456;8.164;2023-12-20T06:46:59;100018.56;;;5.70;96.47
16777;BME280;8505;49.456;8.164;2023-12-20T06:49:27;100023.66;;;5.32;97.35
16777;BME280;8505;49.456;8.164;2023-12-20T06:51:55;100021.28;;;5.59;95.58
16777;BME280;8505;49.456;8.164;2023-12-20T06:54:23;100022.44;;;5.36;96.75
16777;BME280;8505;49.456;8.164;2023-12-20T06:56:52;100019.75;;;5.57;96.40
16777;BME280;8505;49.456;8.164;2023-12-20T06:59:20;100010.66;;;5.61;95.65
16777;BME280;8505;49.456;8.164;2023-12-20T07:01:48;100010.72;;;5.50;95.95
16777;BME280;8505;49.456;8.164;2023-12-20T07:04:17;100004.91;;;5.37;96.43
16777;BME280;8505;49.456;8.164;2023-12-20T07:06:48;100008.06;;;5.10;97.05
16777;BME280;8505;49.456;8.164;2023-12-20T07:09:17;100004.00;;;5.26;97.08
16777;BME280;8505;49.456;8.164;2023-12-20T07:11:45;100009.84;;;5.09;97.00
16777;BME280;8505;49.456;8.164;2023-12-20T07:14:14;100003.25;;;4.94;97.20
16777;BME280;8505;49.456;8.164;2023-12-20T07:16:42;100005.59;;;4.87;100.00
16777;BME280;8505;49.456;8.164;2023-12-20T07:19:09;100008.22;;;4.87;99.26
16777;BME280;8505;49.456;8.164;2023-12-20T07:21:37;100016.00;;;4.78;100.00
16777;BME280;8505;49.456;8.164;2023-12-20T07:24:05;100022.03;;;4.89;100.00
16777;BME280;8505;49.456;8.164;2023-12-20T07:26:33;100021.69;;;4.83;99.55
16777;BME280;8505;49.456;8.164;2023-12-20T07:29:00;100027.72;;;4.95;99.18
16777;BME280;8505;49.456;8.164;2023-12-20T07:31:30;100016.13;;;4.56;100.00
16777;BME280;8505;49.456;8.164;2023-12-20T07:33:58;100025.00;;;4.64;100.00
16777;BME280;8505;49.456;8.164;2023-12-20T07:36:26;100023.00;;;4.68;100.00
16777;BME280;8505;49.456;8.164;2023-12-20T07:38:54;100024.50;;;4.70;100.00
16777;BME280;8505;49.456;8.164;2023-12-20T07:41:22;100024.66;;;4.69;100.00
16777;BME280;8505;49.456;8.164;2023-12-20T07:43:50;100034.31;;;4.68;99.44
16777;BME280;8505;49.456;8.164;2023-12-20T07:46:20;100034.94;;;4.61;99.49
16777;BME280;8505;49.456;8.164;2023-12-20T07:48:50;100043.03;;;4.69;98.37
16777;BME280;8505;49.456;8.164;2023-12-20T07:51:18;100049.28;;;4.57;99.81
16777;BME280;8505;49.456;8.164;2023-12-20T07:53:47;100050.56;;;4.30;100.00
16777;BME280;8505;49.456;8.164;2023-12-20T07:56:15;100046.88;;;4.54;99.10
16777;BME280;8505;49.456;8.164;2023-12-20T07:58:43;100049.28;;;4.45;100.00
16777;BME280;8505;49.456;8.164;2023-12-20T08:01:18;100046.78;;;4.55;100.00
16777;BME280;8505;49.456;8.164;2023-12-20T08:03:49;100049.06;;;4.69;98.28
16777;BME280;8505;49.456;8.164;2023-12-20T08:06:18;100055.53;;;4.65;97.91
16777;BME280;8505;49.456;8.164;2023-12-20T08:08:46;100055.38;;;4.46;98.81
16777;BME280;8505;49.456;8.164;2023-12-20T08:11:24;100054.38;;;4.58;98.18
16777;BME280;8505;49.456;8.164;2023-12-20T08:13:52;100055.19;;;4.59;99.01
16777;BME280;8505;49.456;8.164;2023-12-20T08:16:19;100055.63;;;4.43;99.99
16777;BME280;8505;49.456;8.164;2023-12-20T08:18:47;100062.41;;;4.45;100.00
16777;BME280;8505;49.456;8.164;2023-12-20T08:21:16;100061.38;;;4.37;100.00
16777;BME280;8505;49.456;8.164;2023-12-20T08:23:46;100078.81;;;4.59;100.00
16777;BME280;8505;49.456;8.164;2023-12-20T08:26:18;100078.91;;;4.57;99.68
16777;BME280;8505;49.456;8.164;2023-12-20T08:28:46;100082.97;;;4.61;99.43
16777;BME280;8505;49.456;8.164;2023-12-20T08:31:14;100078.63;;;4.71;98.91
16777;BME280;8505;49.456;8.164;2023-12-20T08:33:44;100073.41;;;4.71;98.63
16777;BME280;8505;49.456;8.164;2023-12-20T08:36:13;100078.03;;;4.79;98.22
16777;BME280;8505;49.456;8.164;2023-12-20T08:38:43;100083.00;;;4.82;98.16
16777;BME280;8505;49.456;8.164;2023-12-20T08:41:10;100079.19;;;4.86;96.91
16777;BME280;8505;49.456;8.164;2023-12-20T08:43:38;100078.34;;;4.85;97.43
16777;BME280;8505;49.456;8.164;2023-12-20T08:46:07;100081.97;;;4.94;95.78
16777;BME280;8505;49.456;8.164;2023-12-20T08:48:36;100074.38;;;4.91;96.33
16777;BME280;8505;49.456;8.164;2023-12-20T08:51:04;100075.66;;;4.97;95.91
16777;BME280;8505;49.456;8.164;2023-12-20T08:53:33;100072.09;;;4.98;95.57
16777;BME280;8505;49.456;8.164;2023-12-20T08:56:03;100077.06;;;5.01;95.47
16777;BME280;8505;49.456;8.164;2023-12-20T08:58:31;100067.84;;;5.06;95.25
16777;BME280;8505;49.456;8.164;2023-12-20T09:01:00;100061.63;;;5.07;95.46
16777;BME280;8505;49.456;8.164;2023-12-20T09:03:27;100077.78;;;5.03;95.65
16777;BME280;8505;49.456;8.164;2023-12-20T09:05:55;100077.69;;;5.14;95.01
16777;BME280;8505;49.456;8.164;2023-12-20T09:08:23;100068.66;;;5.07;94.89
16777;BME280;8505;49.456;8.164;2023-12-20T09:10:50;100071.19;;;5.08;95.12
16777;BME280;8505;49.456;8.164;2023-12-20T09:13:19;100072.84;;;5.09;95.36
16777;BME280;8505;49.456;8.164;2023-12-20T09:15:49;100081.88;;;5.16;95.21
16777;BME280;8505;49.456;8.164;2023-12-20T09:18:16;100073.41;;;5.13;95.38
16777;BME280;8505;49.456;8.164;2023-12-20T09:20:44;100087.97;;;5.17;95.21
16777;BME280;8505;49.456;8.164;2023-12-20T09:23:14;100081.25;;;5.24;94.21
16777;BME280;8505;49.456;8.164;2023-12-20T09:25:42;100084.88;;;5.33;93.47
16777;BME280;8505;49.456;8.164;2023-12-20T09:28:10;100090.75;;;5.25;93.67
16777;BME280;8505;49.456;8.164;2023-12-20T09:30:39;100098.13;;;5.31;93.59
16777;BME280;8505;49.456;8.164;2023-12-20T09:33:07;100102.84;;;5.37;93.31
16777;BME280;8505;49.456;8.164;2023-12-20T09:35:35;100092.09;;;5.40;93.33
16777;BME280;8505;49.456;8.164;2023-12-20T09:38:03;100095.16;;;5.45;92.54
16777;BME280;8505;49.456;8.164;2023-12-20T09:40:32;100086.56;;;5.43;92.48
16777;BME280;8505;49.456;8.164;2023-12-20T09:43:04;100098.97;;;5.62;92.05
16777;BME280;8505;49.456;8.164;2023-12-20T09:45:32;100079.31;;;5.56;91.56
16777;BME280;8505;49.456;8.164;2023-12-20T09:48:03;100079.78;;;5.61;91.29
16777;BME280;8505;49.456;8.164;2023-12-20T09:50:31;100087.25;;;5.66;91.81
16777;BME280;8505;49.456;8.164;2023-12-20T09:53:00;100070.53;;;5.67;90.15
16777;BME280;8505;49.456;8.164;2023-12-20T09:55:31;100068.34;;;5.72;90.63
16777;BME280;8505;49.456;8.164;2023-12-20T09:58:00;100074.75;;;5.79;89.96
16777;BME280;8505;49.456;8.164;2023-12-20T10:00:28;100082.69;;;5.89;89.74
16777;BME280;8505;49.456;8.164;2023-12-20T10:02:57;100081.19;;;5.96;89.39
16777;BME280;8505;49.456;8.164;2023-12-20T10:05:28;100073.84;;;5.99;89.38
16777;BME280;8505;49.456;8.164;2023-12-20T10:07:57;100076.66;;;6.07;88.31
16777;BME280;8505;49.456;8.164;2023-12-20T10:10:26;100072.69;;;6.23;88.79
16777;BME280;8505;49.456;8.164;2023-12-20T10:13:09;100074.84;;;6.08;87.70
16777;BME280;8505;49.456;8.164;2023-12-20T10:15:38;100069.59;;;6.08;88.22
16777;BME280;8505;49.456;8.164;2023-12-20T10:18:07;100068.53;;;6.20;88.16
16777;BME280;8505;49.456;8.164;2023-12-20T10:20:37;100072.16;;;6.29;88.20
16777;BME280;8505;49.456;8.164;2023-12-20T10:23:05;100067.16;;;6.26;87.46
16777;BME280;8505;49.456;8.164;2023-12-20T10:25:33;100067.56;;;6.21;88.46
16777;BME280;8505;49.456;8.164;2023-12-20T10:28:11;100061.84;;;6.06;88.60
16777;BME280;8505;49.456;8.164;2023-12-20T10:30:41;100062.13;;;6.13;88.82
16777;BME280;8505;49.456;8.164;2023-12-20T10:33:10;100067.81;;;6.18;88.52
16777;BME280;8505;49.456;8.164;2023-12-20T10:35:39;100048.88;;;6.24;88.66
16777;BME280;8505;49.456;8.164;2023-12-20T10:38:12;100057.75;;;6.23;88.54
16777;BME280;8505;49.456;8.164;2023-12-20T10:40:41;100061.72;;;6.18;89.75
16777;BME280;8505;49.456;8.164;2023-12-20T10:43:09;100053.28;;;6.14;90.67
16777;BME280;8505;49.456;8.164;2023-12-20T10:45:38;100051.66;;;6.23;90.82
16777;BME280;8505;49.456;8.164;2023-12-20T10:48:07;100054.44;;;6.40;90.76
16777;BME280;8505;49.456;8.164;2023-12-20T10:50:36;100060.13;;;6.45;90.33
16777;BME280;8505;49.456;8.164;2023-12-20T10:53:06;100051.50;;;6.15;90.94
16777;BME280;8505;49.456;8.164;2023-12-20T10:55:34;100046.50;;;6.12;89.76
16777;BME280;8505;49.456;8.164;2023-12-20T10:58:08;100050.25;;;6.09;89.82
16777;BME280;8505;49.456;8.164;2023-12-20T11:00:40;100050.50;;;6.06;89.69
16777;BME280;8505;49.456;8.164;2023-12-20T11:03:11;100047.31;;;6.12;89.48
16777;BME280;8505;49.456;8.164;2023-12-20T11:05:44;100031.13;;;6.07;89.96
16777;BME280;8505;49.456;8.164;2023-12-20T11:08:21;100031.41;;;6.14;89.18
16777;BME280;8505;49.456;8.164;2023-12-20T11:10:55;100031.72;;;6.11;89.65
16777;BME280;8505;49.456;8.164;2023-12-20T11:13:28;100013.44;;;6.09;89.09
16777;BME280;8505;49.456;8.164;2023-12-20T11:15:59;100021.56;;;6.06;88.67
16777;BME280;8505;49.456;8.164;2023-12-20T11:18:30;100021.44;;;6.07;88.93
16777;BME280;8505;49.456;8.164;2023-12-20T11:21:01;100020.34;;;6.20;88.74
16777;BME280;8505;49.456;8.164;2023-12-20T11:23:32;100007.19;;;6.00;88.78
16777;BME280;8505;49.456;8.164;2023-12-20T11:26:02;100010.78;;;5.99;89.08
16777;BME280;8505;49.456;8.164;2023-12-20T11:28:30;100015.34;;;5.97;88.83
16777;BME280;8505;49.456;8.164;2023-12-20T11:30:58;100009.00;;;6.09;88.59
16777;BME280;8505;49.456;8.164;2023-12-20T11:33:30;100001.44;;;6.35;88.38
16777;BME280;8505;49.456;8.164;2023-12-20T11:35:59;100005.16;;;6.23;87.74
16777;BME280;8505;49.456;8.164;2023-12-20T11:38:27;100004.31;;;6.23;87.80
16777;BME280;8505;49.456;8.164;2023-12-20T11:40:56;100006.13;;;6.22;87.56
16777;BME280;8505;49.456;8.164;2023-12-20T11:43:30;100006.81;;;6.43;87.17
16777;BME280;8505;49.456;8.164;2023-12-20T11:46:06;99993.41;;;6.46;87.54
16777;BME280;8505;49.456;8.164;2023-12-20T11:48:36;99995.31;;;6.44;86.53
16777;BME280;8505;49.456;8.164;2023-12-20T11:51:09;99999.34;;;6.29;87.22
16777;BME280;8505;49.456;8.164;2023-12-20T11:53:37;99995.72;;;6.49;86.55
16777;BME280;8505;49.456;8.164;2023-12-20T11:56:06;100005.16;;;6.52;86.09
16777;BME280;8505;49.456;8.164;2023-12-20T11:58:35;99998.63;;;6.56;85.71
16777;BME280;8505;49.456;8.164;2023-12-20T12:01:04;100003.78;;;6.58;85.92
16777;BME280;8505;49.456;8.164;2023-12-20T12:03:34;99992.38;;;6.67;84.78
16777;BME280;8505;49.456;8.164;2023-12-20T12:06:02;99992.53;;;6.84;84.23
16777;BME280;8505;49.456;8.164;2023-12-20T12:08:31;99984.28;;;7.07;83.41
16777;BME280;8505;49.456;8.164;2023-12-20T12:11:00;99986.16;;;7.34;82.32
16777;BME280;8505;49.456;8.164;2023-12-20T12:13:29;99979.28;;;7.13;82.42
16777;BME280;8505;49.456;8.164;2023-12-20T12:15:58;99973.19;;;7.13;80.46
16777;BME280;8505;49.456;8.164;2023-12-20T12:18:26;99977.25;;;6.98;80.93
16777;BME280;8505;49.456;8.164;2023-12-20T12:21:00;99975.47;;;6.88;82.43
16777;BME280;8505;49.456;8.164;2023-12-20T12:23:31;99976.22;;;6.71;82.33
16777;BME280;8505;49.456;8.164;2023-12-20T12:25:59;99968.88;;;6.65;83.24
16777;BME280;8505;49.456;8.164;2023-12-20T12:28:28;99964.56;;;6.64;82.93
16777;BME280;8505;49.456;8.164;2023-12-20T12:30:58;99974.66;;;6.78;83.29
16777;BME280;8505;49.456;8.164;2023-12-20T12:33:27;99969.53;;;6.67;83.19
16777;BME280;8505;49.456;8.164;2023-12-20T12:35:55;99969.56;;;6.58;83.79
16777;BME280;8505;49.456;8.164;2023-12-20T12:38:24;99972.34;;;6.56;83.93
16777;BME280;8505;49.456;8.164;2023-12-20T12:40:52;99987.44;;;6.44;84.56
16777;BME280;8505;49.456;8.164;2023-12-20T12:43:20;99970.97;;;6.33;84.61
16777;BME280;8505;49.456;8.164;2023-12-20T12:45:50;99988.28;;;6.35;84.89
16777;BME280;8505;49.456;8.164;2023-12-20T12:48:18;99981.91;;;6.38;85.34
16777;BME280;8505;49.456;8.164;2023-12-20T12:50:46;99977.47;;;6.19;85.14
16777;BME280;8505;49.456;8.164;2023-12-20T12:53:14;99982.16;;;6.25;85.62
16777;BME280;8505;49.456;8.164;2023-12-20T12:55:42;99978.69;;;6.25;86.40
16777;BME280;8505;49.456;8.164;2023-12-20T12:58:09;99955.75;;;6.17;85.51
16777;BME280;8505;49.456;8.164;2023-12-20T13:00:37;99960.31;;;6.15;86.40
16777;BME280;8505;49.456;8.164;2023-12-20T13:03:06;99958.78;;;6.13;86.60
16777;BME280;8505;49.456;8.164;2023-12-20T13:05:34;99955.47;;;6.11;85.84
16777;BME280;8505;49.456;8.164;2023-12-20T13:08:06;99954.75;;;6.18;85.77
16777;BME280;8505;49.456;8.164;2023-12-20T13:10:34;99937.06;;;6.11;86.33
16777;BME280;8505;49.456;8.164;2023-12-20T13:13:02;99929.84;;;6.13;85.89
16777;BME280;8505;49.456;8.164;2023-12-20T13:15:30;99933.16;;;6.43;84.68
16777;BME280;8505;49.456;8.164;2023-12-20T13:17:58;99930.06;;;6.77;82.96
16777;BME280;8505;49.456;8.164;2023-12-20T13:20:27;99906.06;;;6.89;82.25